Breckenridge, Colorado
Current Conditions -  °F | °C
As of 3:53 PM on Saturday 25 Oct 2014 (Local Time) from KCCU Reporting Station
Clear Clear  
Wind Chill: 55°   Ceiling: Unl
Heat Index: 55°   Visibility: 10mi
Dew Point:   Wind: 5mph
Humidity: 10%   Direction: 240°WSW
Pressure: 30.54"   Gusts: 23mph
Location:  39.48°N, 106.04°W
Report Text: KCCU 252153Z AUTO 24004G20KT 10SM CLR 13/M18 A3054 RMK AO2
Loading
Personal Weather Stations






























Interactive Weather Map
Tropical Storm Tracking
New forecast layout! Learn more

10-Day Weather Forecast

Advertisements
Track Severe Weather on mobile